Impacts METAR Board
IDs:

KMEM - Memphis Intl, TN, US

Updated at: 0800 UTC 19 Jun 2018
Potential Impact None Slight Moderate High
Time 18/20Z 18/21Z 18/22Z 18/23Z 19/00Z 19/01Z 19/02Z 19/03Z 19/04Z 19/05Z 19/06Z 19/07Z 19/08Z
Temp92 93 92 91 89 84 82 81 79 78 78 76 75
Dewpt65 68 66 67 67 70 69 70 71 72 71 71 70
Altim30.09 30.08 30.06 30.04 30.04 30.05 30.06 30.06 30.08 30.10 30.09 30.07 30.06
VIS10 10 10 10 10 10 10 10 10 10 10 10 10
CIG-- -- -- -- -- -- -- -- -- -- -- -- --
CoverSCTSCTFEWFEWFEWSCTFEWCLRCLRCLRFEWFEWFEW
FltCatVFRVFRVFRVFRVFRVFRVFRVFRVFRVFRVFRVFRVFR
WX--------------------------
WDir230270210210200220200190200220230190210
WSpd6 4 4 6 9 11 6 5 4 5 4 4 4
WGst-- -- -- -- -- -- -- -- -- -- -- -- --
Raw hourly METARs
KMEM 181954Z 23006KT 10SM FEW060 SCT095 SCT250 33/18 A3009 RMK AO2 SLP185 T03330183
KMEM 182054Z 27004KT 10SM SCT060 34/20 A3008 RMK AO2 SLP179 T03390200 56018
KMEM 182154Z 21004KT 10SM FEW060 33/19 A3006 RMK AO2 SLP175 T03330189
KMEM 182254Z 21006KT 10SM FEW060 33/19 A3004 RMK AO2 SLP169 T03280194
KMEM 182354Z 20009KT 10SM FEW060 FEW250 32/19 A3004 RMK AO2 SLP169 T03170194 10344 20317 56012
KMEM 190054Z 22011KT 10SM SCT070 29/21 A3005 RMK AO2 SLP173 T02890211
KMEM 190154Z 20006KT 10SM FEW070 28/21 A3006 RMK AO2 SLP174 T02780206
KMEM 190254Z 19005KT 10SM CLR 27/21 A3006 RMK AO2 SLP175 T02720211 51007
KMEM 190354Z 20004KT 10SM CLR 26/22 A3008 RMK AO2 SLP181 T02610217
KMEM 190454Z 22005KT 10SM CLR 26/22 A3010 RMK AO2 SLP186 T02560222
KMEM 190554Z 23004KT 10SM FEW140 26/22 A3009 RMK AO2 SLP184 T02560217 10317 20256 403440233 50009
KMEM 190654Z 19004KT 10SM FEW140 24/22 A3007 RMK AO2 SLP179 T02440217
KMEM 190754Z 21004KT 10SM FEW140 FEW250 24/21 A3006 RMK AO2 SLP173 T02390211



Page loaded:  08:53 UTC  |   01:53 AM Pacific  |   02:53 AM Mountain  |   03:53 AM Central  |   04:53 AM Eastern

 

ADVISORIES

FORECASTS

FORECASTS

OBSERVATIONS

USER TOOLS

ABOUT US